createdAt,value
2018-06-15T00:00:15.026Z,94551.23
2018-06-15T00:02:48.605Z,94549.03
2018-06-15T00:05:17.262Z,94552.77
2018-06-15T00:07:45.840Z,94556.82
2018-06-15T00:10:14.466Z,94555.51
2018-06-15T00:12:43.057Z,94555.48
2018-06-15T00:15:11.712Z,94553.92
2018-06-15T00:17:40.322Z,94552.03
2018-06-15T00:20:08.959Z,94559.44
2018-06-15T00:22:37.563Z,94554.55
2018-06-15T00:25:06.254Z,94555.14
2018-06-15T00:27:34.846Z,94556.70
2018-06-15T00:30:05.028Z,94554.92
2018-06-15T00:32:33.637Z,94557.02
2018-06-15T00:35:02.305Z,94552.45
2018-06-15T00:37:30.927Z,94549.66
2018-06-15T00:39:59.514Z,94548.40
2018-06-15T00:42:28.121Z,94545.41
2018-06-15T00:44:56.757Z,94544.45
2018-06-15T00:47:25.360Z,94549.66
2018-06-15T00:49:53.986Z,94547.25
2018-06-15T00:52:22.574Z,94550.73
2018-06-15T00:54:51.143Z,94566.92
2018-06-15T00:57:30.785Z,94567.09
2018-06-15T00:59:59.400Z,94571.27
2018-06-15T01:02:27.970Z,94568.75
2018-06-15T01:04:56.551Z,94570.12
2018-06-15T01:07:25.149Z,94563.33
2018-06-15T01:09:53.759Z,94563.12
2018-06-15T01:12:22.353Z,94558.65
2018-06-15T01:14:50.923Z,94554.94
2018-06-15T01:17:19.498Z,94557.88
2018-06-15T01:19:48.110Z,94558.26
2018-06-15T01:22:16.671Z,94554.55
2018-06-15T01:24:45.248Z,94563.11
2018-06-15T01:27:13.850Z,94553.77
2018-06-15T01:29:42.414Z,94555.31
2018-06-15T01:32:11.840Z,94550.60
2018-06-15T01:34:40.448Z,94552.16
2018-06-15T01:37:09.078Z,94548.60
2018-06-15T01:39:37.657Z,94549.81
2018-06-15T01:42:06.319Z,94542.21
2018-06-15T01:44:34.902Z,94547.22
2018-06-15T01:47:03.472Z,94546.23
2018-06-15T01:49:32.056Z,94543.09
2018-06-15T01:52:00.682Z,94542.55
2018-06-15T01:54:29.255Z,94546.13
2018-06-15T01:56:57.886Z,94542.01
2018-06-15T01:59:26.471Z,94550.35
2018-06-15T02:01:55.024Z,94555.20
2018-06-15T02:04:23.629Z,94557.12
2018-06-15T02:06:52.195Z,94552.97
2018-06-15T02:09:20.830Z,94557.20
2018-06-15T02:11:49.426Z,94554.16
2018-06-15T02:14:17.991Z,94546.14
2018-06-15T02:16:46.566Z,94557.23
2018-06-15T02:19:15.162Z,94556.16
2018-06-15T02:21:43.856Z,94554.05
2018-06-15T02:24:12.449Z,94558.44
2018-06-15T02:26:41.053Z,94553.93
2018-06-15T02:29:09.610Z,94556.08
2018-06-15T02:31:38.287Z,94562.48
2018-06-15T02:34:06.897Z,94553.45
2018-06-15T02:36:35.542Z,94552.92
2018-06-15T02:39:04.592Z,94546.98
2018-06-15T02:41:33.179Z,94556.81
2018-06-15T02:44:01.768Z,94556.81
2018-06-15T02:46:30.377Z,94556.18
2018-06-15T02:48:58.967Z,94560.27
2018-06-15T02:51:27.591Z,94528.13
2018-06-15T02:53:56.201Z,94563.97
2018-06-15T02:56:24.942Z,94572.91
2018-06-15T02:58:53.559Z,94564.95
2018-06-15T03:01:22.130Z,94572.94
2018-06-15T03:03:50.733Z,94577.07
2018-06-15T03:06:19.332Z,94571.64
2018-06-15T03:08:47.959Z,94569.31
2018-06-15T03:11:16.664Z,94557.80
2018-06-15T03:13:45.276Z,94549.61
2018-06-15T03:16:13.906Z,94539.69
2018-06-15T03:18:42.533Z,94540.83
2018-06-15T03:21:11.126Z,94536.16
2018-06-15T03:23:39.703Z,94538.73
2018-06-15T03:26:08.283Z,94540.29
2018-06-15T03:28:36.902Z,94545.33
2018-06-15T03:31:05.494Z,94558.59
2018-06-15T03:33:34.072Z,94558.97
2018-06-15T03:36:02.752Z,94562.88
2018-06-15T03:38:31.330Z,94564.82
2018-06-15T03:40:59.942Z,94562.52
2018-06-15T03:43:28.662Z,94568.34
2018-06-15T03:45:57.349Z,94575.36
2018-06-15T03:48:26.042Z,94570.10
2018-06-15T03:50:54.626Z,94573.02
2018-06-15T03:53:23.215Z,94574.58
2018-06-15T03:55:51.852Z,94573.23
2018-06-15T03:58:20.410Z,94569.72
2018-06-15T04:00:49.111Z,94574.59
2018-06-15T04:03:18.235Z,94577.12
2018-06-15T04:06:01.570Z,94577.89
2018-06-15T04:08:30.112Z,94574.52
2018-06-15T04:10:58.746Z,94573.31
2018-06-15T04:13:27.323Z,94577.20
2018-06-15T04:15:55.903Z,94577.33
2018-06-15T04:18:24.486Z,94584.55
2018-06-15T04:20:53.102Z,94576.51
2018-06-15T04:23:21.715Z,94580.09
2018-06-15T04:25:50.358Z,94578.50
2018-06-15T04:28:19.303Z,94573.82
2018-06-15T04:30:47.935Z,94575.15
2018-06-15T04:33:16.547Z,94576.34
2018-06-15T04:35:45.162Z,94581.03
2018-06-15T04:38:14.052Z,94582.55
2018-06-15T04:40:42.795Z,94584.30
2018-06-15T04:43:11.414Z,94571.00
2018-06-15T04:45:40.082Z,94577.66
2018-06-15T04:48:08.852Z,94581.92
2018-06-15T04:50:38.343Z,94580.27
2018-06-15T04:53:06.946Z,94586.09
2018-06-15T04:55:35.551Z,94579.16
2018-06-15T04:58:04.142Z,94579.62
2018-06-15T05:00:32.740Z,94582.41
2018-06-15T05:03:01.324Z,94572.53
2018-06-15T05:05:29.930Z,94576.22
2018-06-15T05:07:58.527Z,94579.19
2018-06-15T05:10:27.196Z,94574.95
2018-06-15T05:12:55.803Z,94579.33
2018-06-15T05:15:24.418Z,94579.75
2018-06-15T05:17:53.071Z,94575.48
2018-06-15T05:20:21.639Z,94582.61
2018-06-15T05:22:50.236Z,94574.55
2018-06-15T05:25:18.864Z,94583.01
2018-06-15T05:27:47.528Z,94580.63
2018-06-15T05:30:16.196Z,94575.99
2018-06-15T05:32:44.881Z,94586.74
2018-06-15T05:35:13.486Z,94583.97
2018-06-15T05:37:42.074Z,94585.88
2018-06-15T05:40:10.717Z,94583.47
2018-06-15T05:42:39.325Z,94577.41
2018-06-15T05:45:08.043Z,94576.83
2018-06-15T05:47:36.651Z,94578.59
2018-06-15T05:50:05.278Z,94585.75
2018-06-15T05:52:33.860Z,94585.44
2018-06-15T05:55:02.410Z,94583.39
2018-06-15T05:57:31.026Z,94586.04
2018-06-15T05:59:59.594Z,94580.28
2018-06-15T06:02:28.173Z,94581.37
2018-06-15T06:04:56.813Z,94580.16
2018-06-15T06:07:26.277Z,94579.63
2018-06-15T06:09:54.941Z,94588.69
2018-06-15T06:12:23.548Z,94590.13
2018-06-15T06:14:52.221Z,94580.84
2018-06-15T06:17:20.823Z,94529.03
2018-06-15T06:19:49.511Z,94588.47
2018-06-15T06:22:18.154Z,94587.25
2018-06-15T06:24:46.794Z,94586.30
2018-06-15T06:27:15.375Z,94584.43
2018-06-15T06:29:43.959Z,94583.56
2018-06-15T06:32:12.548Z,94590.61
2018-06-15T06:34:41.191Z,94595.52
2018-06-15T06:37:09.807Z,94585.31
2018-06-15T06:39:38.478Z,94602.53
2018-06-15T06:42:07.136Z,94595.30
2018-06-15T06:44:35.747Z,94596.80
2018-06-15T06:47:04.322Z,94593.03
2018-06-15T06:49:32.931Z,94588.05
2018-06-15T06:52:01.506Z,94592.20
2018-06-15T06:54:30.194Z,94593.55
2018-06-15T06:56:58.784Z,94592.66
2018-06-15T06:59:27.377Z,94595.80
2018-06-15T07:01:56.052Z,94587.57
2018-06-15T07:04:24.610Z,94594.31
2018-06-15T07:06:53.207Z,94587.18
2018-06-15T07:09:21.903Z,94591.98
2018-06-15T07:11:50.518Z,94584.92
2018-06-15T07:14:19.149Z,94585.48
2018-06-15T07:16:47.834Z,94584.67
2018-06-15T07:19:16.432Z,94574.91
2018-06-15T07:21:45.050Z,94578.86
2018-06-15T07:24:13.644Z,94575.17
2018-06-15T07:26:42.207Z,94572.57
2018-06-15T07:29:10.758Z,94577.81
2018-06-15T07:31:39.308Z,94573.00
2018-06-15T07:34:07.863Z,94571.93
2018-06-15T07:36:36.433Z,94576.80
2018-06-15T07:39:06.861Z,94580.18
2018-06-15T07:41:35.508Z,94577.63
2018-06-15T07:44:04.236Z,94562.42
2018-06-15T07:46:32.819Z,94555.94
2018-06-15T07:49:01.397Z,94563.01
2018-06-15T07:51:29.964Z,94575.30
2018-06-15T07:53:58.580Z,94561.45
2018-06-15T07:56:27.148Z,94569.22
2018-06-15T07:58:55.830Z,94564.38
2018-06-15T08:01:24.402Z,94565.73
2018-06-15T08:03:58.003Z,94549.16
2018-06-15T08:06:26.575Z,94559.14
2018-06-15T08:08:55.353Z,94566.97
2018-06-15T08:11:23.947Z,94561.55
2018-06-15T08:13:52.534Z,94558.44
2018-06-15T08:16:21.136Z,94557.33
2018-06-15T08:18:49.688Z,94558.58
2018-06-15T08:21:18.319Z,94560.48
2018-06-15T08:23:46.978Z,94558.33
2018-06-15T08:26:15.535Z,94542.55
2018-06-15T08:28:44.174Z,94540.20
2018-06-15T08:31:12.774Z,94540.99
2018-06-15T08:33:41.530Z,94541.46
2018-06-15T08:36:10.094Z,94546.84
2018-06-15T08:38:38.790Z,94536.05
2018-06-15T08:41:07.648Z,94544.41
2018-06-15T08:43:36.208Z,94540.20
2018-06-15T08:46:04.820Z,94538.52
2018-06-15T08:48:33.413Z,94529.89
2018-06-15T08:51:02.046Z,94532.27
2018-06-15T08:53:30.659Z,94531.25
2018-06-15T08:55:59.218Z,94527.39
2018-06-15T08:58:27.783Z,94531.22
2018-06-15T09:00:56.351Z,94536.53
2018-06-15T09:03:24.944Z,94536.06
2018-06-15T09:05:53.560Z,94543.34
2018-06-15T09:08:22.214Z,94542.09
2018-06-15T09:10:51.930Z,94543.95
2018-06-15T09:13:20.476Z,94549.99
2018-06-15T09:15:49.040Z,94536.78
2018-06-15T09:18:18.662Z,94540.70
2018-06-15T09:20:47.365Z,94535.25
2018-06-15T09:23:16.020Z,94542.50
2018-06-15T09:25:44.631Z,94538.04
2018-06-15T09:28:13.170Z,94543.23
2018-06-15T09:30:41.765Z,94539.80
2018-06-15T09:33:10.351Z,94534.53
2018-06-15T09:35:39.495Z,94533.64
2018-06-15T09:38:08.102Z,94527.55
2018-06-15T09:40:36.702Z,94526.02
2018-06-15T09:43:05.294Z,94514.59
2018-06-15T09:45:34.040Z,94514.97
2018-06-15T09:48:02.692Z,94511.46
2018-06-15T09:50:31.250Z,94496.17
2018-06-15T09:52:59.875Z,94500.81
2018-06-15T09:55:28.975Z,94495.41
2018-06-15T09:57:57.616Z,94485.08
2018-06-15T10:00:31.397Z,94468.37
2018-06-15T10:02:59.986Z,94467.70
2018-06-15T10:05:28.640Z,94466.77
2018-06-15T10:07:57.237Z,94454.95
2018-06-15T10:10:25.806Z,94452.80
2018-06-15T10:12:54.394Z,94461.27
2018-06-15T10:15:22.933Z,94479.31
2018-06-15T10:17:51.627Z,94472.38
2018-06-15T10:20:20.307Z,94456.52
2018-06-15T10:22:48.900Z,94462.98
2018-06-15T10:25:17.554Z,94454.06
2018-06-15T10:27:46.213Z,94483.11
2018-06-15T10:30:14.807Z,94487.39
2018-06-15T10:32:43.683Z,94495.52
2018-06-15T10:35:12.323Z,94496.86
2018-06-15T10:37:40.893Z,94470.30
2018-06-15T10:40:09.544Z,94452.99
2018-06-15T10:42:38.114Z,94473.94
2018-06-15T10:45:06.779Z,94493.35
2018-06-15T10:47:35.353Z,94466.44
2018-06-15T10:50:04.040Z,94460.75
2018-06-15T10:52:32.666Z,94467.51
2018-06-15T10:55:01.349Z,94455.50
2018-06-15T10:57:29.950Z,94456.42
2018-06-15T10:59:58.523Z,94473.83
2018-06-15T11:02:27.248Z,94467.36
2018-06-15T11:04:55.834Z,94481.83
2018-06-15T11:07:24.468Z,94493.56
2018-06-15T11:09:53.128Z,94497.59
2018-06-15T11:12:21.745Z,94493.88
2018-06-15T11:14:50.492Z,94499.13
2018-06-15T11:17:19.082Z,94498.33
2018-06-15T11:19:47.727Z,94514.27
2018-06-15T11:22:16.274Z,94526.70
2018-06-15T11:24:44.899Z,94532.32
2018-06-15T11:27:13.517Z,94537.70
2018-06-15T11:29:42.130Z,94538.75
2018-06-15T11:32:10.821Z,94539.13
2018-06-15T11:34:39.445Z,94550.94
2018-06-15T11:37:08.140Z,94541.10
2018-06-15T11:39:36.805Z,94536.09
2018-06-15T11:42:05.486Z,94544.66
2018-06-15T11:44:34.147Z,94550.93
2018-06-15T11:47:02.736Z,94548.25
2018-06-15T11:49:31.356Z,94547.56
2018-06-15T11:52:00.058Z,94542.84
2018-06-15T11:54:28.720Z,94549.18
2018-06-15T11:56:57.319Z,94539.62
2018-06-15T11:59:26.171Z,94530.09
2018-06-15T12:01:54.782Z,94536.78
2018-06-15T12:04:23.334Z,94536.50
2018-06-15T12:06:51.908Z,94541.23
2018-06-15T12:09:20.497Z,94549.58
2018-06-15T12:11:49.084Z,94557.72
2018-06-15T12:14:17.710Z,94558.93
2018-06-15T12:16:46.298Z,94550.78
2018-06-15T12:19:14.998Z,94554.06
2018-06-15T12:21:43.542Z,94538.77
2018-06-15T12:24:12.103Z,94546.14
2018-06-15T12:26:40.705Z,94546.75
2018-06-15T12:29:09.362Z,94541.53
2018-06-15T12:31:38.576Z,94546.97
2018-06-15T12:34:07.280Z,94542.72
2018-06-15T12:36:35.889Z,94529.87
2018-06-15T12:39:06.511Z,94533.78
2018-06-15T12:41:35.119Z,94535.20
2018-06-15T12:44:03.746Z,94530.75
2018-06-15T12:46:32.339Z,94525.56
2018-06-15T12:49:00.927Z,94536.09
2018-06-15T12:51:29.507Z,94532.62
2018-06-15T12:53:58.162Z,94533.00
2018-06-15T12:56:27.038Z,94527.96
2018-06-15T12:58:55.613Z,94532.95
2018-06-15T13:01:24.173Z,94527.07
2018-06-15T13:03:52.792Z,94518.93
2018-06-15T13:06:21.337Z,94522.78
2018-06-15T13:08:49.931Z,94508.77
2018-06-15T13:11:18.595Z,94505.39
2018-06-15T13:13:47.182Z,94344.87
2018-06-15T13:16:15.787Z,94504.28
2018-06-15T13:18:44.363Z,94500.14
2018-06-15T13:21:12.933Z,94504.90
2018-06-15T13:23:41.582Z,94510.06
2018-06-15T13:26:10.132Z,94514.52
2018-06-15T13:28:38.776Z,94502.20
2018-06-15T13:31:07.550Z,94519.99
2018-06-15T13:33:36.097Z,94528.37
2018-06-15T13:36:06.039Z,94526.94
2018-06-15T13:38:34.620Z,94525.78
2018-06-15T13:41:03.325Z,94524.06
2018-06-15T13:43:31.891Z,94515.09
2018-06-15T13:46:00.485Z,94522.35
2018-06-15T13:48:29.155Z,94523.28
2018-06-15T13:50:57.833Z,94518.01
2018-06-15T13:53:26.495Z,94511.48
2018-06-15T13:55:55.043Z,94512.55
2018-06-15T13:58:23.632Z,94529.91
2018-06-15T14:00:52.246Z,94543.46
2018-06-15T14:03:21.088Z,94548.09
2018-06-15T14:05:49.751Z,94548.00
2018-06-15T14:08:18.358Z,94512.94
2018-06-15T14:10:46.950Z,94547.66
2018-06-15T14:13:15.771Z,94550.37
2018-06-15T14:15:44.328Z,94548.99
2018-06-15T14:18:12.882Z,94554.14
2018-06-15T14:20:41.550Z,94556.05
2018-06-15T14:23:10.553Z,94554.09
2018-06-15T14:25:39.140Z,94565.38
2018-06-15T14:28:08.421Z,94567.19
2018-06-15T14:30:37.073Z,94573.47
2018-06-15T14:33:05.686Z,94589.95
2018-06-15T14:35:34.326Z,94600.10
2018-06-15T14:38:02.891Z,94593.21
2018-06-15T14:40:31.825Z,94601.51
2018-06-15T14:43:00.376Z,94612.11
2018-06-15T14:45:28.919Z,94607.89
2018-06-15T14:47:57.495Z,94604.48
2018-06-15T14:50:26.035Z,94603.95
2018-06-15T14:52:54.688Z,94610.25
2018-06-15T14:55:23.295Z,94615.05
2018-06-15T14:57:51.866Z,94632.14
2018-06-15T15:00:20.463Z,94639.58
2018-06-15T15:02:49.119Z,94643.78
2018-06-15T15:05:17.775Z,94642.55
2018-06-15T15:07:46.455Z,94635.13
2018-06-15T15:10:15.057Z,94618.68
2018-06-15T15:12:43.623Z,94604.66
2018-06-15T15:15:12.216Z,94607.57
2018-06-15T15:17:40.820Z,94600.13
2018-06-15T15:20:09.432Z,94603.95
2018-06-15T15:22:38.083Z,94595.07
2018-06-15T15:25:06.722Z,94600.17
2018-06-15T15:27:35.403Z,94594.48
2018-06-15T15:30:06.123Z,94590.66
2018-06-15T15:32:34.690Z,94575.90
2018-06-15T15:35:03.677Z,94570.44
2018-06-15T15:37:32.251Z,94569.11
2018-06-15T15:40:00.853Z,94569.11
2018-06-15T15:42:29.433Z,94569.64
2018-06-15T15:44:58.112Z,94568.53
2018-06-15T15:47:26.701Z,94575.13
2018-06-15T15:49:55.310Z,94583.70
2018-06-15T15:52:24.022Z,94589.19
2018-06-15T15:54:52.631Z,94599.31
2018-06-15T15:57:21.476Z,94603.94
2018-06-15T15:59:50.082Z,94597.28
2018-06-15T16:02:18.733Z,94596.64
2018-06-15T16:04:47.636Z,94592.70
2018-06-15T16:07:17.288Z,94603.05
2018-06-15T16:09:46.152Z,94611.87
2018-06-15T16:12:14.772Z,94606.20
2018-06-15T16:14:43.393Z,94614.22
2018-06-15T16:17:12.506Z,94629.82
2018-06-15T16:19:41.459Z,94496.84
2018-06-15T16:22:10.934Z,94673.75
2018-06-15T16:24:39.540Z,94673.41
2018-06-15T16:27:08.336Z,94658.31
2018-06-15T16:29:36.926Z,94660.63
2018-06-15T16:32:05.605Z,94660.54
2018-06-15T16:34:34.261Z,94670.48
2018-06-15T16:37:02.911Z,94679.96
2018-06-15T16:39:31.463Z,94687.80
2018-06-15T16:42:00.092Z,94683.90
2018-06-15T16:44:28.714Z,94689.56
2018-06-15T16:46:57.335Z,94692.75
2018-06-15T16:49:25.936Z,94691.86
2018-06-15T16:51:54.991Z,94690.89
2018-06-15T16:54:23.609Z,94701.53
2018-06-15T16:56:52.469Z,94704.11
2018-06-15T16:59:21.087Z,94712.48
2018-06-15T17:01:49.679Z,94714.02
2018-06-15T17:04:18.292Z,94717.52
2018-06-15T17:06:46.958Z,94721.80
2018-06-15T17:09:15.547Z,94722.17
2018-06-15T17:11:44.138Z,94715.77
2018-06-15T17:14:12.721Z,94711.67
2018-06-15T17:16:41.315Z,94709.14
2018-06-15T17:19:09.970Z,94701.14
2018-06-15T17:21:38.582Z,94696.08
2018-06-15T17:24:07.204Z,94695.11
2018-06-15T17:26:35.808Z,94689.86
2018-06-15T17:29:04.806Z,94687.11
2018-06-15T17:31:33.436Z,94679.33
2018-06-15T17:34:02.039Z,94692.18
2018-06-15T17:36:30.760Z,94683.80
2018-06-15T17:38:59.327Z,94683.97
2018-06-15T17:41:28.201Z,94680.50
2018-06-15T17:43:56.802Z,94688.45
2018-06-15T17:46:25.737Z,94685.33
2018-06-15T17:48:54.535Z,94685.52
2018-06-15T17:51:23.156Z,94688.42
2018-06-15T17:53:52.194Z,94696.75
2018-06-15T17:56:20.860Z,94702.63
2018-06-15T17:58:49.740Z,94707.50
2018-06-15T18:01:18.360Z,94711.36
2018-06-15T18:03:47.141Z,94706.89
2018-06-15T18:06:15.875Z,94706.66
2018-06-15T18:08:44.458Z,94704.90
2018-06-15T18:11:13.426Z,94704.72
2018-06-15T18:13:42.080Z,94709.38
2018-06-15T18:16:10.746Z,94712.54
2018-06-15T18:18:39.315Z,94724.00
2018-06-15T18:21:08.087Z,94733.55
2018-06-15T18:23:36.714Z,94734.52
2018-06-15T18:26:05.406Z,94736.66
2018-06-15T18:28:34.046Z,94746.35
2018-06-15T18:31:02.643Z,94745.41
2018-06-15T18:33:31.587Z,94747.77
2018-06-15T18:36:00.289Z,94753.97
2018-06-15T18:38:29.250Z,94755.75
2018-06-15T18:40:57.861Z,94760.57
2018-06-15T18:43:26.662Z,94765.27
2018-06-15T18:45:55.716Z,94765.66
2018-06-15T18:48:25.974Z,94769.53
2018-06-15T18:50:54.789Z,94763.27
2018-06-15T18:53:23.452Z,94766.63
2018-06-15T18:55:52.043Z,94761.66
2018-06-15T18:58:20.983Z,94762.78
2018-06-15T19:00:49.624Z,94760.45
2018-06-15T19:03:18.258Z,94768.66
2018-06-15T19:05:46.914Z,94771.80
2018-06-15T19:08:15.503Z,94777.25
2018-06-15T19:10:44.447Z,94773.99
2018-06-15T19:13:13.077Z,94772.37
2018-06-15T19:15:41.856Z,94764.17
2018-06-15T19:18:10.450Z,94763.21
2018-06-15T19:20:39.178Z,94765.53
2018-06-15T19:23:07.904Z,94766.11
2018-06-15T19:25:36.833Z,94775.06
2018-06-15T19:28:05.643Z,94771.37
2018-06-15T19:30:34.278Z,94777.60
2018-06-15T19:33:02.900Z,94777.43
2018-06-15T19:35:31.754Z,94774.17
2018-06-15T19:38:00.540Z,94772.81
2018-06-15T19:40:29.288Z,94774.60
2018-06-15T19:42:58.072Z,94771.30
2018-06-15T19:45:27.111Z,94778.11
2018-06-15T19:47:55.891Z,94779.44
2018-06-15T19:50:24.495Z,94777.47
2018-06-15T19:52:53.166Z,94772.42
2018-06-15T19:55:21.834Z,94773.25
2018-06-15T19:57:50.415Z,94775.03
2018-06-15T20:00:20.259Z,94774.68
2018-06-15T20:02:48.926Z,94774.29
2018-06-15T20:05:17.535Z,94774.66
2018-06-15T20:07:46.126Z,94772.54
2018-06-15T20:10:14.726Z,94773.48
2018-06-15T20:12:43.332Z,94753.99
2018-06-15T20:15:11.939Z,94774.11
2018-06-15T20:17:40.528Z,94765.13
2018-06-15T20:20:09.182Z,94772.70
2018-06-15T20:22:38.156Z,94769.42
2018-06-15T20:25:07.521Z,94771.56
2018-06-15T20:27:36.249Z,94766.86
2018-06-15T20:30:06.475Z,94762.02
2018-06-15T20:32:35.050Z,94756.58
2018-06-15T20:35:03.672Z,94760.69
2018-06-15T20:37:32.312Z,94764.77
2018-06-15T20:40:00.947Z,94766.51
2018-06-15T20:42:29.570Z,94762.06
2018-06-15T20:44:58.177Z,94765.78
2018-06-15T20:47:26.797Z,94766.55
2018-06-15T20:49:55.552Z,94759.14
2018-06-15T20:52:24.155Z,94758.75
2018-06-15T20:54:53.122Z,94761.22
2018-06-15T20:57:21.750Z,94757.53
2018-06-15T20:59:50.396Z,94760.64
2018-06-15T21:02:19.184Z,94752.10
2018-06-15T21:04:47.783Z,94760.91
2018-06-15T21:07:16.408Z,94761.70
2018-06-15T21:09:45.047Z,94762.86
2018-06-15T21:12:13.655Z,94760.94
2018-06-15T21:14:42.680Z,94762.87
2018-06-15T21:17:11.330Z,94753.49
2018-06-15T21:19:39.961Z,94764.77
2018-06-15T21:22:08.539Z,94762.65
2018-06-15T21:24:37.112Z,94755.81
2018-06-15T21:27:05.793Z,94768.65
2018-06-15T21:29:34.384Z,94774.06
2018-06-15T21:32:02.989Z,94768.45
2018-06-15T21:34:31.658Z,94770.99
2018-06-15T21:37:00.247Z,94768.84
2018-06-15T21:39:29.822Z,94760.25
2018-06-15T21:41:58.439Z,94768.81
2018-06-15T21:44:26.994Z,94771.17
2018-06-15T21:46:55.607Z,94772.39
2018-06-15T21:49:24.146Z,94778.44
2018-06-15T21:51:52.741Z,94774.73
2018-06-15T21:54:21.323Z,94784.48
2018-06-15T21:56:49.986Z,94778.63
2018-06-15T21:59:18.650Z,94770.98
2018-06-15T22:01:47.323Z,94767.50
2018-06-15T22:04:15.893Z,94768.28
2018-06-15T22:06:44.455Z,94767.73
2018-06-15T22:09:13.056Z,94771.65
2018-06-15T22:11:41.639Z,94768.72
2018-06-15T22:14:10.206Z,94768.13
2018-06-15T22:16:44.019Z,94761.86
2018-06-15T22:19:12.624Z,94764.44
2018-06-15T22:21:41.208Z,94768.16
2018-06-15T22:24:09.810Z,94771.39
2018-06-15T22:26:38.412Z,94755.64
2018-06-15T22:29:07.050Z,94751.77
2018-06-15T22:31:35.719Z,94746.50
2018-06-15T22:34:04.329Z,94747.70
2018-06-15T22:36:32.931Z,94740.52
2018-06-15T22:39:01.528Z,94734.27
2018-06-15T22:41:30.150Z,94734.60
2018-06-15T22:43:58.779Z,94729.92
2018-06-15T22:46:27.328Z,94724.70
2018-06-15T22:48:56.026Z,94727.00
2018-06-15T22:51:24.602Z,94742.78
2018-06-15T22:53:53.166Z,94743.59
2018-06-15T22:56:21.755Z,94734.25
2018-06-15T22:58:50.377Z,94736.59
2018-06-15T23:01:19.040Z,94706.61
2018-06-15T23:03:47.711Z,94732.92
2018-06-15T23:06:16.375Z,94736.03
2018-06-15T23:08:44.926Z,94753.52
2018-06-15T23:11:13.551Z,94751.91
2018-06-15T23:13:42.138Z,94761.22
2018-06-15T23:16:10.743Z,94756.12
2018-06-15T23:18:39.299Z,94759.08
2018-06-15T23:21:08.004Z,94762.17
2018-06-15T23:23:36.595Z,94763.95
2018-06-15T23:26:05.215Z,94764.87
2018-06-15T23:28:33.770Z,94764.34
2018-06-15T23:31:02.357Z,94760.59
2018-06-15T23:33:30.931Z,94763.55
2018-06-15T23:35:59.502Z,94759.03
2018-06-15T23:38:28.137Z,94755.13
2018-06-15T23:40:56.762Z,94754.31
2018-06-15T23:43:25.363Z,94756.97
2018-06-15T23:45:54.286Z,94760.15
2018-06-15T23:48:22.867Z,94758.61
2018-06-15T23:50:51.475Z,94767.17
2018-06-15T23:53:20.123Z,94762.96
2018-06-15T23:55:48.700Z,94762.05
2018-06-15T23:58:17.327Z,94765.59
